Time;durP1;ratioP1;P1;durP2;ratioP2;P2;SDS_P1;SDS_P2;PMS_P1;PMS_P2;Temp;Humidity;BMP_temperature;BMP_pressure;BME280_temperature;BME280_humidity;BME280_pressure;Samples;Min_cycle;Max_cycle;Signal;HPM_P1;HPM_P2
2021/05/17 00:01:36;;;;;;;1.20;0.97;;;11.10;99.90;;;;;;5110797;28;21043;-68
2021/05/17 00:04:06;;;;;;;1.73;1.17;;;11.00;99.90;;;;;;5111131;28;20452;-67
2021/05/17 00:06:34;;;;;;;3.30;1.80;;;10.90;99.90;;;;;;5109702;28;20465;-70
2021/05/17 00:09:04;;;;;;;2.60;1.40;;;10.90;99.90;;;;;;5109848;28;20431;-68
2021/05/17 00:11:32;;;;;;;2.30;1.80;;;10.80;99.90;;;;;;5111312;28;20399;-68
2021/05/17 00:13:59;;;;;;;1.67;1.00;;;10.80;99.90;;;;;;5111260;28;20418;-68
2021/05/17 00:16:27;;;;;;;1.47;1.20;;;10.80;99.90;;;;;;5111032;28;20896;-69
2021/05/17 00:18:56;;;;;;;3.40;1.50;;;10.80;99.90;;;;;;5111185;28;20379;-70
2021/05/17 00:21:24;;;;;;;1.03;0.93;;;10.70;99.90;;;;;;5110969;28;20413;-69
2021/05/17 00:23:52;;;;;;;1.40;1.20;;;10.60;99.90;;;;;;5111412;28;21129;-70
2021/05/17 00:26:21;;;;;;;1.93;1.20;;;10.60;99.90;;;;;;5111319;28;20497;-70
2021/05/17 00:28:49;;;;;;;1.70;1.30;;;10.60;99.90;;;;;;5111536;28;20399;-70
2021/05/17 00:31:17;;;;;;;2.03;1.27;;;10.50;99.90;;;;;;5111168;28;20414;-69
2021/05/17 00:33:45;;;;;;;2.63;1.10;;;10.50;99.90;;;;;;5113463;28;20436;-68
2021/05/17 00:36:14;;;;;;;4.27;1.67;;;10.40;99.90;;;;;;5113779;28;20398;-69
2021/05/17 00:38:42;;;;;;;2.80;1.30;;;10.40;99.90;;;;;;5111414;28;20763;-69
2021/05/17 00:41:10;;;;;;;1.60;1.43;;;10.40;99.90;;;;;;5110796;28;20608;-69
2021/05/17 00:43:39;;;;;;;4.00;1.75;;;10.30;99.90;;;;;;5110806;28;20440;-70
2021/05/17 00:46:08;;;;;;;1.13;1.00;;;10.30;99.90;;;;;;5110607;28;20704;-70
2021/05/17 00:48:37;;;;;;;1.70;1.60;;;10.30;99.90;;;;;;5110836;28;20409;-70
2021/05/17 00:51:07;;;;;;;1.63;1.37;;;10.30;99.90;;;;;;5110728;28;20855;-69
2021/05/17 00:53:36;;;;;;;1.60;1.10;;;10.40;99.90;;;;;;5109394;28;20428;-69
2021/05/17 00:56:06;;;;;;;1.80;1.40;;;10.30;99.90;;;;;;5110829;28;20448;-70
2021/05/17 00:58:38;;;;;;;2.95;1.85;;;10.30;99.90;;;;;;5109686;28;20808;-69
2021/05/17 01:01:07;;;;;;;1.70;1.30;;;10.30;99.90;;;;;;5108902;28;20197;-69
2021/05/17 01:03:35;;;;;;;3.13;1.47;;;10.30;99.90;;;;;;5109264;28;20450;-70
2021/05/17 01:06:13;;;;;;;1.30;1.20;;;10.30;99.90;;;;;;5109527;28;20488;-68
2021/05/17 01:08:47;;;;;;;4.83;1.30;;;10.30;99.90;;;;;;5109457;28;20208;-70
2021/05/17 01:11:18;;;;;;;1.67;1.57;;;10.30;99.90;;;;;;5113118;28;20420;-67
2021/05/17 01:13:48;;;;;;;1.45;1.35;;;10.30;99.90;;;;;;5114664;28;20440;-69
2021/05/17 01:16:16;;;;;;;1.98;1.33;;;10.30;99.90;;;;;;5114910;28;20591;-70
2021/05/17 01:18:44;;;;;;;2.20;1.75;;;10.40;99.90;;;;;;5115026;28;20373;-69
2021/05/17 01:21:16;;;;;;;1.77;1.33;;;10.40;99.90;;;;;;5115264;28;20274;-68
2021/05/17 01:23:50;;;;;;;1.60;1.20;;;10.40;99.90;;;;;;5115438;28;20978;-68
2021/05/17 01:26:19;;;;;;;1.87;1.10;;;10.40;99.90;;;;;;5114491;28;20467;-69
2021/05/17 01:28:49;;;;;;;2.00;1.80;;;10.30;99.90;;;;;;5114265;28;20473;-70
2021/05/17 01:31:19;;;;;;;1.83;1.40;;;10.30;99.90;;;;;;5114369;28;20682;-70
2021/05/17 01:33:48;;;;;;;3.00;1.27;;;10.10;99.90;;;;;;5114950;28;20439;-70
2021/05/17 01:36:19;;;;;;;1.60;1.40;;;10.00;99.90;;;;;;5113473;28;20435;-70
2021/05/17 01:38:51;;;;;;;2.17;1.90;;;10.00;99.90;;;;;;5113191;28;20866;-68
2021/05/17 01:41:24;;;;;;;1.77;1.57;;;9.90;99.90;;;;;;5114884;28;20421;-70
2021/05/17 01:43:54;;;;;;;2.90;1.02;;;9.90;99.90;;;;;;5112455;28;20423;-67
2021/05/17 01:46:25;;;;;;;2.80;2.03;;;9.90;99.90;;;;;;5112614;28;20602;-69
2021/05/17 01:48:59;;;;;;;1.30;1.20;;;10.00;99.90;;;;;;5113911;28;20375;-70
2021/05/17 01:51:28;;;;;;;2.17;1.70;;;10.00;99.90;;;;;;5112680;28;20186;-69
2021/05/17 01:53:59;;;;;;;2.30;1.60;;;10.00;99.90;;;;;;5113970;28;20707;-67
2021/05/17 01:56:28;;;;;;;1.83;1.53;;;10.10;99.90;;;;;;5112428;28;20805;-69
2021/05/17 01:59:08;;;;;;;1.97;1.60;;;10.20;99.90;;;;;;5112394;28;20466;-69
2021/05/17 02:01:36;;;;;;;1.63;1.40;;;10.00;99.90;;;;;;5113686;28;20440;-70
2021/05/17 02:04:05;;;;;;;1.40;1.30;;;10.00;99.90;;;;;;5112204;28;20421;-69
2021/05/17 02:06:33;;;;;;;1.70;1.30;;;10.00;99.90;;;;;;5112392;28;20223;-69
2021/05/17 02:09:03;;;;;;;2.43;1.80;;;10.00;99.90;;;;;;5112355;28;20403;-69
2021/05/17 02:11:31;;;;;;;3.57;1.87;;;10.00;99.90;;;;;;5112216;28;20433;-69
2021/05/17 02:14:11;;;;;;;1.33;1.13;;;10.00;99.90;;;;;;5112001;28;20517;-70
2021/05/17 02:16:40;;;;;;;5.03;1.70;;;10.00;99.90;;;;;;5112434;28;20265;-69
2021/05/17 02:19:08;;;;;;;1.45;1.35;;;10.10;99.90;;;;;;5113512;28;20409;-69
2021/05/17 02:21:37;;;;;;;2.13;1.60;;;10.00;99.90;;;;;;5113196;28;20592;-69
2021/05/17 02:27:06;;;;;;;2.80;1.27;;;10.20;99.90;;;;;;5030382;28;20216;-67
2021/05/17 02:29:39;;;;;;;2.43;1.50;;;10.30;99.90;;;;;;5031932;28;20408;-67
2021/05/17 02:32:08;;;;;;;1.43;1.20;;;10.40;99.90;;;;;;5031715;28;20472;-67
2021/05/17 02:34:36;;;;;;;2.50;1.50;;;10.60;99.90;;;;;;5030539;28;20956;-68
2021/05/17 02:37:09;;;;;;;1.80;1.17;;;10.70;99.90;;;;;;5032247;28;20823;-68
2021/05/17 02:39:37;;;;;;;3.03;2.40;;;10.70;99.90;;;;;;5030814;28;20443;-68
2021/05/17 02:42:10;;;;;;;2.03;1.60;;;10.60;99.90;;;;;;5031707;28;20428;-68
2021/05/17 02:44:40;;;;;;;2.37;1.27;;;10.70;99.90;;;;;;5031706;28;20430;-68
2021/05/17 02:47:08;;;;;;;1.60;1.47;;;10.70;99.90;;;;;;5031851;28;20475;-68
2021/05/17 02:49:36;;;;;;;1.70;1.20;;;10.80;99.90;;;;;;5031939;28;20902;-68
2021/05/17 02:52:05;;;;;;;3.27;1.83;;;10.90;99.90;;;;;;5031588;28;20457;-68
2021/05/17 02:54:37;;;;;;;2.33;1.50;;;11.00;99.90;;;;;;5031590;28;20740;-68
2021/05/17 02:57:08;;;;;;;1.60;1.37;;;11.00;99.90;;;;;;5030302;28;20407;-67
2021/05/17 03:00:07;;;;;;;1.63;1.50;;;11.00;99.90;;;;;;5031861;28;20498;-68
2021/05/17 03:02:59;;;;;;;1.70;1.47;;;11.10;99.90;;;;;;5030026;28;20443;-68
2021/05/17 03:05:33;;;;;;;1.70;1.60;;;11.10;99.90;;;;;;5030047;28;20606;-69
2021/05/17 03:08:04;;;;;;;2.83;1.20;;;11.10;99.90;;;;;;5030118;28;20486;-68
2021/05/17 03:10:33;;;;;;;2.30;1.10;;;11.20;99.90;;;;;;5030363;28;20633;-68
2021/05/17 03:13:07;;;;;;;1.50;1.40;;;11.30;99.90;;;;;;5030061;28;20456;-69
2021/05/17 03:15:36;;;;;;;2.27;1.57;;;11.20;99.90;;;;;;5031472;28;20459;-69
2021/05/17 03:18:06;;;;;;;2.20;1.73;;;11.20;99.90;;;;;;5032097;28;20420;-67
2021/05/17 03:20:35;;;;;;;2.00;1.00;;;11.30;99.90;;;;;;5032192;28;20407;-67
2021/05/17 03:23:07;;;;;;;2.47;1.50;;;11.40;99.90;;;;;;5031807;28;20415;-68
2021/05/17 03:25:36;;;;;;;2.10;1.30;;;11.40;99.90;;;;;;5031683;28;20424;-68
2021/05/17 03:28:05;;;;;;;3.90;1.63;;;11.40;99.90;;;;;;5030256;28;20451;-69
2021/05/17 03:30:33;;;;;;;1.80;1.20;;;11.30;99.90;;;;;;5031317;28;20443;-69
2021/05/17 03:33:00;;;;;;;2.30;1.70;;;11.20;99.90;;;;;;5030573;28;20932;-68
2021/05/17 03:35:28;;;;;;;2.27;1.80;;;11.20;99.90;;;;;;5031113;28;20510;-67
2021/05/17 03:37:56;;;;;;;1.97;1.77;;;11.30;99.90;;;;;;5031315;28;20402;-69
2021/05/17 03:40:24;;;;;;;2.50;1.47;;;11.20;99.90;;;;;;5029783;28;20520;-67
2021/05/17 03:42:51;;;;;;;1.97;1.67;;;11.20;99.90;;;;;;5030509;28;20438;-67
2021/05/17 03:45:20;;;;;;;2.87;1.80;;;11.20;99.90;;;;;;5031039;28;20411;-67
2021/05/17 03:47:47;;;;;;;1.90;1.60;;;11.10;99.90;;;;;;5031669;28;20452;-67
2021/05/17 03:50:15;;;;;;;2.93;1.83;;;11.10;99.90;;;;;;5031184;28;20428;-67
2021/05/17 03:52:43;;;;;;;2.27;1.60;;;11.20;99.90;;;;;;5031039;28;20479;-67
2021/05/17 03:55:11;;;;;;;3.27;1.30;;;11.20;99.90;;;;;;5031093;28;20794;-68
2021/05/17 03:57:39;;;;;;;4.27;1.63;;;11.00;99.90;;;;;;5031220;28;20481;-68
2021/05/17 04:00:09;;;;;;;2.47;1.33;;;10.90;99.90;;;;;;5031102;28;20790;-68
2021/05/17 04:02:42;;;;;;;3.10;1.90;;;11.00;99.90;;;;;;5030963;28;20406;-67
2021/05/17 04:05:25;;;;;;;1.87;1.50;;;11.10;99.90;;;;;;5031056;28;20412;-66
2021/05/17 04:08:11;;;;;;;2.37;2.00;;;11.10;99.90;;;;;;5031112;28;20438;-68
2021/05/17 04:13:25;;;;;;;4.70;1.87;;;11.00;99.90;;;;;;5031020;28;20552;-69
2021/05/17 04:15:55;;;;;;;3.60;2.50;;;11.00;99.90;;;;;;5031336;28;20785;-68
2021/05/17 04:18:24;;;;;;;1.87;1.40;;;11.00;99.90;;;;;;5031111;28;20424;-68
2021/05/17 04:20:53;;;;;;;2.53;1.77;;;11.10;99.90;;;;;;5031019;28;20751;-68
2021/05/17 04:23:21;;;;;;;1.40;1.30;;;11.00;99.90;;;;;;5030986;28;20890;-69
2021/05/17 04:25:49;;;;;;;1.90;1.80;;;11.10;99.90;;;;;;5030857;28;20411;-68
2021/05/17 04:28:17;;;;;;;2.80;1.77;;;10.90;99.90;;;;;;5030532;28;20398;-68
2021/05/17 04:30:45;;;;;;;2.00;1.47;;;11.00;99.90;;;;;;5030453;28;20424;-68
2021/05/17 04:33:13;;;;;;;2.13;1.23;;;11.00;99.90;;;;;;5030343;28;20406;-68
2021/05/17 04:35:41;;;;;;;3.23;2.23;;;11.10;99.90;;;;;;5030496;28;20477;-68
2021/05/17 04:38:10;;;;;;;2.50;2.03;;;11.20;99.90;;;;;;5035340;28;20469;-67
2021/05/17 04:40:37;;;;;;;3.60;2.40;;;11.20;99.90;;;;;;5044488;28;20443;-70
2021/05/17 04:43:05;;;;;;;2.87;2.57;;;11.30;99.90;;;;;;5044000;28;20458;-69
2021/05/17 04:45:33;;;;;;;2.43;1.80;;;11.60;99.90;;;;;;5061329;28;20429;-69
2021/05/17 04:48:01;;;;;;;2.37;1.80;;;12.30;99.90;;;;;;5049138;28;20471;-69
2021/05/17 04:50:29;;;;;;;4.43;1.87;;;13.60;99.90;;;;;;5064984;28;20455;-70
2021/05/17 04:52:58;;;;;;;2.03;1.80;;;15.00;99.90;;;;;;5048214;28;20486;-69
2021/05/17 04:55:26;;;;;;;2.33;1.80;;;16.40;99.90;;;;;;5047806;28;20395;-66
2021/05/17 04:57:54;;;;;;;3.47;1.63;;;17.10;99.90;;;;;;5045638;28;20467;-68
2021/05/17 05:00:21;;;;;;;1.90;1.50;;;16.70;99.90;;;;;;5044763;28;20442;-68
2021/05/17 05:02:49;;;;;;;1.60;1.27;;;15.90;99.90;;;;;;5047496;28;20415;-69
2021/05/17 05:05:17;;;;;;;2.80;2.17;;;15.30;99.90;;;;;;5048020;28;20414;-68
2021/05/17 05:07:46;;;;;;;2.03;1.83;;;15.00;99.90;;;;;;5046582;28;20502;-66
2021/05/17 05:10:14;;;;;;;1.90;1.63;;;15.00;99.90;;;;;;5048082;28;20447;-67
2021/05/17 05:12:42;;;;;;;2.20;1.83;;;16.70;99.90;;;;;;5045799;28;20475;-68
2021/05/17 05:15:10;;;;;;;1.50;1.13;;;19.60;99.90;;;;;;5045573;28;20431;-69
2021/05/17 05:17:38;;;;;;;3.43;1.63;;;22.20;99.90;;;;;;5041618;28;20432;-69
2021/05/17 05:20:07;;;;;;;1.97;1.60;;;23.20;99.90;;;;;;5038840;28;20434;-69
2021/05/17 05:22:35;;;;;;;2.47;1.70;;;22.80;99.90;;;;;;5040319;28;21012;-66
2021/05/17 05:25:05;;;;;;;1.10;0.97;;;22.50;99.90;;;;;;5039019;28;20436;-66
2021/05/17 05:27:36;;;;;;;1.93;1.43;;;22.00;99.90;;;;;;5039091;28;20463;-67
2021/05/17 05:32:55;;;;;;;3.90;1.50;;;18.00;99.90;;;;;;5036489;28;20451;-70
2021/05/17 05:35:24;;;;;;;6.57;1.73;;;16.70;99.90;;;;;;5034600;28;20420;-67
2021/05/17 05:37:52;;;;;;;3.00;1.70;;;16.30;99.90;;;;;;5036415;28;20907;-68
2021/05/17 05:40:19;;;;;;;1.73;1.60;;;15.80;99.90;;;;;;5035537;28;20431;-67
2021/05/17 05:42:48;;;;;;;1.30;1.00;;;15.70;99.90;;;;;;5035585;28;20419;-68
2021/05/17 05:45:23;;;;;;;2.10;0.90;;;15.70;99.90;;;;;;5034334;28;20922;-69
2021/05/17 05:47:51;;;;;;;1.80;1.20;;;15.30;99.90;;;;;;5033692;28;20439;-68
2021/05/17 05:50:18;;;;;;;2.73;1.60;;;15.20;99.90;;;;;;5032011;28;20416;-68
2021/05/17 05:52:46;;;;;;;1.20;0.80;;;15.00;99.90;;;;;;5031996;28;20468;-68
2021/05/17 05:55:14;;;;;;;2.63;1.40;;;14.60;99.90;;;;;;5032035;28;20401;-68
2021/05/17 05:57:43;;;;;;;2.03;1.00;;;14.30;99.90;;;;;;5031500;28;20391;-68
2021/05/17 06:00:14;;;;;;;1.43;1.00;;;14.00;99.90;;;;;;5032135;28;20391;-68
2021/05/17 06:02:42;;;;;;;1.67;1.10;;;13.90;99.90;;;;;;5031626;28;20971;-68
2021/05/17 06:05:11;;;;;;;1.43;0.80;;;13.80;99.90;;;;;;5032107;28;20395;-69
2021/05/17 06:07:39;;;;;;;1.13;0.77;;;14.00;99.90;;;;;;5032526;28;20442;-68
2021/05/17 06:10:09;;;;;;;1.30;0.90;;;14.30;99.90;;;;;;5031406;28;20432;-67
2021/05/17 06:12:39;;;;;;;1.20;0.97;;;14.40;99.90;;;;;;5032609;28;20473;-67
2021/05/17 06:15:08;;;;;;;1.40;0.83;;;14.50;99.90;;;;;;5032574;28;20439;-68
2021/05/17 06:17:37;;;;;;;1.47;1.00;;;14.70;99.90;;;;;;5032665;28;20406;-67
2021/05/17 06:20:06;;;;;;;1.60;1.20;;;15.10;99.90;;;;;;5032134;28;20764;-69
2021/05/17 06:22:36;;;;;;;2.07;1.40;;;15.50;99.90;;;;;;5031770;28;20414;-67
2021/05/17 06:25:06;;;;;;;3.43;2.53;;;15.70;99.90;;;;;;5031681;28;20512;-67
2021/05/17 06:27:34;;;;;;;2.90;0.90;;;16.10;99.90;;;;;;5030254;28;20471;-69
2021/05/17 06:30:04;;;;;;;1.17;0.83;;;16.20;99.90;;;;;;5031724;28;20966;-68
2021/05/17 06:32:35;;;;;;;1.70;1.30;;;16.60;99.90;;;;;;5031361;28;20951;-69
2021/05/17 06:35:05;;;;;;;1.50;1.10;;;16.70;99.90;;;;;;5031360;28;20416;-68
2021/05/17 06:37:33;;;;;;;1.70;0.80;;;16.60;99.90;;;;;;5031389;28;20931;-68
2021/05/17 06:40:00;;;;;;;3.40;3.10;;;16.90;99.90;;;;;;5031071;28;20403;-68
2021/05/17 06:42:29;;;;;;;1.57;1.00;;;17.10;99.90;;;;;;5031264;28;20537;-68
2021/05/17 06:44:57;;;;;;;2.33;1.37;;;16.90;99.90;;;;;;5031485;28;20406;-68
2021/05/17 06:47:25;;;;;;;1.50;1.00;;;16.70;99.90;;;;;;5031657;28;20968;-67
2021/05/17 06:49:53;;;;;;;6.50;0.80;;;16.50;99.90;;;;;;5031927;28;20575;-68
2021/05/17 06:52:24;;;;;;;1.63;0.70;;;16.30;99.90;;;;;;5031526;28;20785;-68
2021/05/17 06:54:58;;;;;;;2.60;1.00;;;16.30;99.90;;;;;;5031328;28;20424;-68
2021/05/17 06:57:32;;;;;;;1.23;1.03;;;16.20;99.90;;;;;;5031290;28;20504;-68
2021/05/17 07:00:05;;;;;;;1.73;1.27;;;16.00;99.90;;;;;;5031684;28;20455;-68
2021/05/17 07:02:35;;;;;;;1.00;0.70;;;16.10;99.90;;;;;;5031696;28;20423;-68
2021/05/17 07:05:04;;;;;;;2.70;1.83;;;16.00;99.90;;;;;;5031590;28;20424;-69
2021/05/17 07:07:45;;;;;;;2.43;1.10;;;15.90;99.90;;;;;;5030561;28;20446;-67
2021/05/17 07:13:00;;;;;;;1.20;0.80;;;15.40;99.90;;;;;;5030220;28;20456;-67
2021/05/17 07:15:28;;;;;;;3.03;0.97;;;15.60;99.90;;;;;;5010479;28;20454;-68
2021/05/17 07:17:56;;;;;;;1.93;0.90;;;15.60;99.90;;;;;;5010810;28;20945;-68
2021/05/17 07:20:28;;;;;;;1.10;0.90;;;15.60;99.90;;;;;;5010708;28;20429;-68
2021/05/17 07:25:42;;;;;;;3.23;0.60;;;15.40;99.90;;;;;;5011070;28;20411;-68
2021/05/17 07:28:10;;;;;;;1.30;0.77;;;15.60;99.90;;;;;;5011533;28;20460;-69
2021/05/17 07:30:38;;;;;;;1.30;0.90;;;15.60;99.90;;;;;;5011262;28;20452;-68
2021/05/17 07:33:06;;;;;;;1.20;0.70;;;15.40;99.90;;;;;;5011419;28;20812;-68
2021/05/17 07:35:34;;;;;;;1.20;0.70;;;15.20;99.90;;;;;;5011131;28;20732;-68
2021/05/17 07:38:02;;;;;;;1.20;0.67;;;15.00;99.90;;;;;;5011798;28;20396;-68
2021/05/17 07:40:30;;;;;;;1.57;1.00;;;15.20;99.90;;;;;;5015603;28;20612;-70
2021/05/17 07:42:58;;;;;;;1.20;0.80;;;15.40;99.90;;;;;;5031204;28;20425;-69
2021/05/17 07:45:44;;;;;;;1.47;0.87;;;15.60;99.90;;;;;;5030704;28;20794;-69
2021/05/17 07:48:12;;;;;;;1.00;0.70;;;15.50;99.90;;;;;;5031416;28;20939;-69
2021/05/17 07:50:40;;;;;;;1.67;0.83;;;15.60;99.90;;;;;;5030859;28;20491;-70
2021/05/17 07:53:09;;;;;;;3.07;0.93;;;15.70;99.90;;;;;;5031006;28;20452;-69
2021/05/17 07:55:36;;;;;;;1.40;0.90;;;15.60;99.90;;;;;;5031204;28;20418;-69
2021/05/17 07:58:04;;;;;;;1.13;0.97;;;15.80;99.90;;;;;;5029796;28;20511;-68
2021/05/17 08:00:32;;;;;;;1.20;0.70;;;15.90;99.90;;;;;;5030616;28;20420;-69
2021/05/17 08:03:01;;;;;;;1.40;0.70;;;16.00;99.90;;;;;;5029668;28;20423;-69
2021/05/17 08:05:32;;;;;;;1.10;0.70;;;16.20;99.90;;;;;;5029759;28;20442;-69
2021/05/17 08:08:00;;;;;;;1.77;0.80;;;16.30;99.90;;;;;;5030391;28;20460;-68
2021/05/17 08:10:29;;;;;;;1.00;0.70;;;16.40;99.90;;;;;;5030222;28;20427;-68
2021/05/17 08:12:56;;;;;;;1.10;0.80;;;16.30;99.90;;;;;;5029112;28;20447;-69
2021/05/17 08:15:24;;;;;;;1.47;0.87;;;16.30;99.90;;;;;;5030165;28;20402;-69
2021/05/17 08:17:52;;;;;;;1.13;0.60;;;16.50;99.90;;;;;;5030422;28;20977;-69
2021/05/17 08:20:19;;;;;;;1.53;0.80;;;16.90;99.90;;;;;;5029976;28;20476;-69
2021/05/17 08:22:47;;;;;;;1.67;0.70;;;17.00;99.90;;;;;;5030075;28;20482;-68
2021/05/17 08:25:15;;;;;;;1.30;0.77;;;17.00;99.90;;;;;;5058666;22;20841;-69
2021/05/17 08:27:43;;;;;;;3.00;1.13;;;17.20;99.90;;;;;;5050188;28;20933;-69
2021/05/17 08:30:13;;;;;;;2.60;1.03;;;17.10;99.90;;;;;;5050458;28;20447;-69
2021/05/17 08:32:40;;;;;;;1.00;0.80;;;17.40;99.90;;;;;;5050090;28;20468;-70
2021/05/17 08:35:09;;;;;;;1.23;0.70;;;17.80;99.90;;;;;;5050507;28;20434;-67
2021/05/17 08:37:36;;;;;;;1.57;0.80;;;18.10;99.90;;;;;;5051373;28;20395;-68
2021/05/17 08:40:07;;;;;;;1.20;0.60;;;18.10;99.90;;;;;;5033226;28;20436;-71
2021/05/17 08:42:34;;;;;;;1.83;0.90;;;18.30;99.90;;;;;;5044788;28;20480;-69
2021/05/17 08:45:04;;;;;;;1.77;0.70;;;18.50;99.90;;;;;;5048901;28;20434;-68
2021/05/17 08:47:33;;;;;;;0.80;0.50;;;18.40;99.90;;;;;;5049970;28;20433;-68
2021/05/17 08:50:00;;;;;;;1.83;1.03;;;18.10;99.90;;;;;;5050456;28;20394;-68
2021/05/17 08:52:29;;;;;;;1.17;0.60;;;17.70;99.90;;;;;;5050463;28;20910;-69
2021/05/17 08:54:56;;;;;;;1.20;0.67;;;18.00;99.90;;;;;;5050161;28;20390;-67
2021/05/17 08:57:24;;;;;;;2.07;0.77;;;18.10;99.90;;;;;;5050000;28;20427;-71
2021/05/17 08:59:52;;;;;;;1.03;0.63;;;18.50;99.90;;;;;;5051382;28;20914;-70
2021/05/17 09:02:21;;;;;;;1.00;0.60;;;18.70;99.90;;;;;;5050736;28;20457;-69
2021/05/17 09:05:15;;;;;;;1.37;0.70;;;19.00;99.90;;;;;;5048940;28;20689;-69
2021/05/17 09:07:44;;;;;;;1.57;0.90;;;19.20;99.90;;;;;;5048895;28;20463;-68
2021/05/17 09:10:17;;;;;;;1.60;1.00;;;19.00;99.90;;;;;;5050235;28;20418;-69
2021/05/17 09:13:01;;;;;;;1.10;0.73;;;18.80;99.90;;;;;;5049605;28;20489;-69
2021/05/17 09:15:40;;;;;;;3.10;1.17;;;18.30;99.90;;;;;;5049950;28;20841;-68
2021/05/17 09:18:13;;;;;;;1.00;0.60;;;17.80;99.90;;;;;;5049811;28;20785;-71
2021/05/17 09:20:42;;;;;;;1.93;1.23;;;17.30;99.90;;;;;;5049506;28;20412;-70
2021/05/17 09:23:12;;;;;;;2.30;0.90;;;17.30;99.90;;;;;;5050383;28;20447;-70
2021/05/17 09:25:54;;;;;;;1.00;0.80;;;17.60;99.90;;;;;;5049644;28;20431;-69
2021/05/17 09:28:24;;;;;;;1.20;0.70;;;17.50;99.90;;;;;;5049699;28;20490;-69
2021/05/17 09:30:54;;;;;;;3.00;0.90;;;17.60;99.90;;;;;;5048238;28;20492;-69
2021/05/17 09:33:22;;;;;;;3.57;0.87;;;17.70;99.90;;;;;;5052788;28;20443;-68
2021/05/17 09:35:50;;;;;;;1.30;1.00;;;17.80;99.90;;;;;;5039318;28;20437;-70
2021/05/17 09:38:23;;;;;;;1.00;0.60;;;17.80;99.90;;;;;;5037437;28;20427;-68
2021/05/17 09:41:03;;;;;;;0.90;0.50;;;17.70;99.90;;;;;;5052421;28;20434;-69
2021/05/17 09:43:32;;;;;;;1.57;0.90;;;17.50;99.90;;;;;;5052559;28;20530;-68
2021/05/17 09:46:00;;;;;;;1.10;0.70;;;17.70;99.90;;;;;;5052231;28;20427;-68
2021/05/17 09:48:45;;;;;;;3.53;0.97;;;18.00;99.90;;;;;;5051155;28;20463;-69
2021/05/17 09:51:14;;;;;;;2.20;0.60;;;18.40;99.90;;;;;;5051239;28;20439;-70
2021/05/17 09:53:43;;;;;;;1.10;0.67;;;18.70;99.90;;;;;;5035686;28;20643;-72
2021/05/17 09:56:15;;;;;;;0.90;0.50;;;18.90;99.90;;;;;;5033123;28;20420;-68
2021/05/17 09:58:45;;;;;;;1.20;0.90;;;19.30;99.90;;;;;;5033530;28;20825;-71
2021/05/17 10:01:16;;;;;;;2.17;0.70;;;19.20;99.90;;;;;;5032885;28;20448;-71
2021/05/17 10:03:46;;;;;;;0.97;0.60;;;19.10;99.90;;;;;;5032871;28;20791;-69
2021/05/17 10:06:19;;;;;;;1.30;0.60;;;19.20;99.90;;;;;;5032971;28;20407;-67
2021/05/17 10:08:47;;;;;;;1.47;1.07;;;19.40;99.90;;;;;;5031203;28;20819;-69
2021/05/17 10:11:15;;;;;;;0.90;0.57;;;19.30;99.90;;;;;;5032306;28;20959;-69
2021/05/17 10:13:44;;;;;;;0.90;0.53;;;19.20;99.90;;;;;;5032598;28;20444;-69
2021/05/17 10:16:15;;;;;;;1.10;0.60;;;18.70;99.90;;;;;;5032528;28;20507;-69
2021/05/17 10:18:43;;;;;;;1.37;0.50;;;18.80;99.90;;;;;;5032400;28;20395;-68
2021/05/17 10:21:15;;;;;;;2.10;1.07;;;18.90;99.90;;;;;;5032143;28;20416;-71
2021/05/17 10:23:44;;;;;;;1.30;0.70;;;19.20;99.90;;;;;;5032207;28;20454;-70
2021/05/17 10:26:14;;;;;;;1.00;0.70;;;19.00;99.90;;;;;;5032470;28;20975;-69
2021/05/17 10:28:47;;;;;;;0.90;0.57;;;18.80;99.90;;;;;;5032213;28;20430;-69
2021/05/17 10:31:16;;;;;;;1.30;1.00;;;18.80;99.90;;;;;;5032115;28;20497;-69
2021/05/17 10:33:56;;;;;;;1.10;0.60;;;18.70;99.90;;;;;;5032887;28;20425;-72
2021/05/17 10:36:51;;;;;;;1.30;0.93;;;19.10;99.90;;;;;;5032764;28;20507;-70
2021/05/17 10:39:22;;;;;;;1.10;0.60;;;19.50;99.90;;;;;;5045268;28;20433;-67
2021/05/17 10:42:02;;;;;;;1.00;0.70;;;19.80;99.90;;;;;;5051830;28;20914;-72
2021/05/17 10:46:36;;;;;;;1.40;0.70;;;20.20;99.90;;;;;;5052983;28;20904;-70
2021/05/17 10:47:38;;;;;;;1.10;0.80;;;20.40;99.90;;;;;;5051808;28;20444;-71
2021/05/17 10:50:14;;;;;;;1.20;0.60;;;19.80;99.90;;;;;;5052080;28;20437;-70
2021/05/17 10:52:43;;;;;;;1.00;0.70;;;19.10;99.90;;;;;;5052402;28;20417;-68
2021/05/17 10:55:12;;;;;;;1.00;0.70;;;19.00;99.90;;;;;;5053419;28;20535;-70
2021/05/17 10:57:55;;;;;;;1.50;0.57;;;18.70;99.90;;;;;;5032786;28;20395;-70
2021/05/17 11:00:24;;;;;;;0.93;0.60;;;18.40;99.90;;;;;;5032440;28;20424;-68
2021/05/17 11:03:11;;;;;;;1.20;0.60;;;18.40;99.90;;;;;;5032726;28;20502;-70
2021/05/17 11:05:40;;;;;;;1.90;1.80;;;18.70;99.90;;;;;;5035044;28;20422;-70
2021/05/17 11:08:11;;;;;;;1.20;0.67;;;19.00;99.90;;;;;;5034852;28;20435;-70
2021/05/17 11:10:40;;;;;;;1.17;0.70;;;19.50;99.90;;;;;;5035140;28;20431;-68
2021/05/17 11:13:11;;;;;;;1.30;0.77;;;19.80;99.90;;;;;;5034962;28;20464;-69
2021/05/17 11:16:00;;;;;;;2.70;0.90;;;20.10;99.90;;;;;;5038438;28;20451;-69
2021/05/17 11:18:40;;;;;;;1.00;0.60;;;20.40;99.90;;;;;;5037755;28;20523;-70
2021/05/17 11:21:20;;;;;;;1.23;0.93;;;20.50;99.90;;;;;;5037865;28;20424;-71
2021/05/17 11:24:05;;;;;;;1.10;0.80;;;19.70;99.90;;;;;;5039719;28;20871;-71
2021/05/17 11:26:49;;;;;;;1.67;0.87;;;19.50;99.90;;;;;;5040674;28;20527;-70
2021/05/17 11:29:29;;;;;;;1.17;0.70;;;19.60;99.90;;;;;;5041369;28;20466;-70
2021/05/17 11:32:16;;;;;;;2.27;0.90;;;19.60;99.90;;;;;;5038858;28;20447;-69
2021/05/17 11:35:09;;;;;;;0.90;0.50;;;19.80;99.90;;;;;;5033451;28;20424;-68
2021/05/17 11:38:07;;;;;;;1.83;1.00;;;20.10;99.90;;;;;;5034339;28;20410;-69
2021/05/17 11:40:37;;;;;;;2.23;0.60;;;20.10;99.90;;;;;;5036199;28;20482;-69
2021/05/17 11:43:04;;;;;;;1.87;0.80;;;20.00;99.90;;;;;;5052488;28;20828;-70
2021/05/17 11:45:36;;;;;;;1.10;0.70;;;20.10;99.90;;;;;;5051563;28;20397;-70
2021/05/17 11:48:04;;;;;;;1.40;0.70;;;20.10;99.90;;;;;;5051322;28;20532;-69
2021/05/17 11:50:32;;;;;;;1.00;0.60;;;20.30;99.90;;;;;;5051438;28;20838;-70
2021/05/17 11:53:00;;;;;;;2.10;0.70;;;20.30;99.90;;;;;;5050968;28;20516;-69
2021/05/17 11:55:28;;;;;;;1.00;0.60;;;20.30;99.90;;;;;;5050802;28;20427;-70
2021/05/17 11:57:57;;;;;;;0.97;0.60;;;20.30;99.90;;;;;;5051457;28;20830;-72
2021/05/17 12:00:25;;;;;;;2.97;1.07;;;20.50;99.90;;;;;;5051268;28;20398;-70
2021/05/17 12:02:55;;;;;;;1.47;0.67;;;20.60;99.90;;;;;;5049995;28;20447;-67
2021/05/17 12:05:24;;;;;;;1.33;0.87;;;20.80;99.90;;;;;;5050639;28;20423;-69
2021/05/17 12:07:53;;;;;;;0.90;0.50;;;20.80;99.90;;;;;;5050490;28;20419;-71
2021/05/17 12:10:21;;;;;;;1.93;0.50;;;20.30;99.90;;;;;;5050407;28;20463;-68
2021/05/17 12:12:51;;;;;;;1.10;0.60;;;20.10;99.90;;;;;;5049950;28;20512;-68
2021/05/17 12:15:22;;;;;;;0.90;0.53;;;20.10;99.90;;;;;;5048689;28;20833;-68
2021/05/17 12:17:50;;;;;;;0.90;0.57;;;20.40;99.90;;;;;;5050313;28;20394;-72
2021/05/17 12:20:19;;;;;;;1.43;0.97;;;20.80;99.90;;;;;;5050210;28;20477;-71
2021/05/17 12:22:48;;;;;;;1.10;0.70;;;20.60;99.90;;;;;;5049924;28;20446;-67
2021/05/17 12:25:17;;;;;;;1.17;0.63;;;20.70;99.90;;;;;;5049678;28;20446;-69
2021/05/17 12:27:46;;;;;;;0.90;0.60;;;21.00;99.90;;;;;;5050283;28;20419;-69
2021/05/17 12:30:16;;;;;;;1.63;0.93;;;21.40;99.90;;;;;;5050778;28;20494;-70
2021/05/17 12:32:47;;;;;;;2.43;0.70;;;21.70;99.90;;;;;;5050010;28;20981;-69
2021/05/17 12:35:17;;;;;;;5.33;0.67;;;22.20;99.90;;;;;;5050225;28;20428;-71
2021/05/17 12:37:47;;;;;;;3.00;0.60;;;21.80;99.90;;;;;;5050807;28;20418;-69
2021/05/17 12:40:31;;;;;;;1.27;0.70;;;21.40;99.90;;;;;;5030354;28;20490;-72
2021/05/17 12:43:12;;;;;;;0.90;0.57;;;21.00;99.90;;;;;;5047531;28;20862;-70
2021/05/17 12:45:43;;;;;;;1.63;0.70;;;20.60;99.90;;;;;;5049936;28;20476;-69
2021/05/17 12:48:20;;;;;;;1.30;0.80;;;20.20;99.90;;;;;;5049643;28;20492;-69
2021/05/17 12:50:50;;;;;;;1.00;0.60;;;20.20;99.90;;;;;;5049568;28;20482;-69
2021/05/17 12:53:19;;;;;;;1.97;1.77;;;20.30;99.90;;;;;;5049451;28;20815;-69
2021/05/17 12:55:48;;;;;;;1.37;0.93;;;20.40;99.90;;;;;;5048484;28;20462;-69
2021/05/17 12:58:28;;;;;;;1.10;0.63;;;20.40;99.90;;;;;;5049558;28;20397;-70
2021/05/17 13:00:56;;;;;;;1.63;1.07;;;20.30;99.90;;;;;;5049653;28;20481;-69
2021/05/17 13:03:33;;;;;;;1.13;0.80;;;20.30;99.90;;;;;;5049436;28;20421;-69
2021/05/17 13:06:06;;;;;;;1.97;1.37;;;20.50;99.90;;;;;;5050027;28;20784;-69
2021/05/17 13:08:55;;;;;;;1.20;1.00;;;20.30;99.90;;;;;;5053446;28;20850;-70
2021/05/17 13:11:25;;;;;;;1.00;0.70;;;20.40;99.90;;;;;;5053560;28;20424;-70
2021/05/17 13:13:57;;;;;;;1.00;0.60;;;21.00;99.90;;;;;;5053413;28;20421;-70
2021/05/17 13:16:29;;;;;;;1.23;0.70;;;21.60;99.90;;;;;;5053569;28;20459;-70
2021/05/17 13:19:07;;;;;;;1.20;0.73;;;22.10;99.90;;;;;;5043111;28;20416;-70
2021/05/17 13:21:45;;;;;;;1.57;0.90;;;21.90;99.90;;;;;;5033202;28;20394;-69